createdAt,value
2019-05-23T00:00:46.829Z,95846.86
2019-05-23T00:03:18.494Z,95846.45
2019-05-23T00:06:06.889Z,95845.63
2019-05-23T00:08:38.041Z,95844.30
2019-05-23T00:11:30.468Z,95843.48
2019-05-23T00:14:05.282Z,95845.70
2019-05-23T00:16:34.596Z,95844.03
2019-05-23T00:19:04.549Z,95840.96
2019-05-23T00:21:34.739Z,95837.52
2019-05-23T00:24:05.176Z,95838.83
2019-05-23T00:26:36.021Z,95838.83
2019-05-23T00:29:10.659Z,95834.44
2019-05-23T00:31:50.421Z,95837.44
2019-05-23T00:34:20.301Z,95834.37
2019-05-23T00:36:49.527Z,95835.67
2019-05-23T00:39:19.749Z,95828.88
2019-05-23T00:41:49.766Z,95828.52
2019-05-23T00:44:19.962Z,95831.08
2019-05-23T00:46:50.081Z,95841.52
2019-05-23T00:49:19.970Z,95835.06
2019-05-23T00:51:49.106Z,95841.08
2019-05-23T00:54:19.389Z,95844.61
2019-05-23T00:56:49.533Z,95839.45
2019-05-23T00:59:27.281Z,95838.16
2019-05-23T01:01:50.309Z,95836.01
2019-05-23T01:04:21.700Z,95837.27
2019-05-23T01:06:50.835Z,95843.44
2019-05-23T01:09:20.439Z,95833.08
2019-05-23T01:11:49.766Z,95841.81
2019-05-23T01:14:20.497Z,95837.61
2019-05-23T01:16:51.318Z,95842.34
2019-05-23T01:19:21.310Z,95838.86
2019-05-23T01:22:00.175Z,95838.09
2019-05-23T01:24:33.842Z,95834.31
2019-05-23T01:27:04.576Z,95832.33
2019-05-23T01:29:39.855Z,95832.00
2019-05-23T01:32:21.606Z,95832.94
2019-05-23T01:34:51.081Z,95831.50
2019-05-23T01:37:21.470Z,95832.80
2019-05-23T01:39:50.901Z,95828.50
2019-05-23T01:42:20.558Z,95825.81
2019-05-23T01:44:50.169Z,95827.88
2019-05-23T01:47:20.078Z,95830.89
2019-05-23T01:49:49.930Z,95835.69
2019-05-23T01:52:20.162Z,95833.92
2019-05-23T01:54:49.384Z,95837.06
2019-05-23T01:57:18.719Z,95841.33
2019-05-23T01:59:48.457Z,95838.80
2019-05-23T02:02:19.256Z,95833.15
2019-05-23T02:04:48.457Z,95833.58
2019-05-23T02:07:18.153Z,95835.76
2019-05-23T02:09:47.309Z,95834.81
2019-05-23T02:12:17.798Z,95837.41
2019-05-23T02:14:48.433Z,95833.97
2019-05-23T02:17:18.236Z,95835.70
2019-05-23T02:19:48.161Z,95830.56
2019-05-23T02:22:17.937Z,95828.84
2019-05-23T02:24:48.288Z,95830.20
2019-05-23T02:27:18.110Z,95825.41
2019-05-23T02:29:47.454Z,95828.00
2019-05-23T02:32:18.138Z,95831.04
2019-05-23T02:34:49.136Z,95820.61
2019-05-23T02:37:40.318Z,95819.84
2019-05-23T02:40:19.318Z,95826.36
2019-05-23T02:42:54.727Z,95834.17
2019-05-23T02:45:31.156Z,95831.11
2019-05-23T02:48:01.261Z,95830.27
2019-05-23T02:50:36.371Z,95825.89
2019-05-23T02:53:07.814Z,95827.18
2019-05-23T02:55:40.630Z,95827.18
2019-05-23T02:58:18.034Z,95825.41
2019-05-23T03:01:05.741Z,95821.97
2019-05-23T03:03:36.929Z,95826.42
2019-05-23T03:06:12.816Z,95825.55
2019-05-23T03:08:43.893Z,95829.09
2019-05-23T03:11:45.710Z,95835.74
2019-05-23T03:14:16.486Z,95828.48
2019-05-23T03:16:47.087Z,95823.20
2019-05-23T03:19:23.171Z,95824.44
2019-05-23T03:21:56.506Z,95829.31
2019-05-23T03:24:26.423Z,95824.92
2019-05-23T03:27:07.783Z,95825.38
2019-05-23T03:29:36.911Z,95822.36
2019-05-23T03:32:14.683Z,95820.23
2019-05-23T03:34:45.763Z,95822.38
2019-05-23T03:37:16.101Z,95820.25
2019-05-23T03:39:46.455Z,95818.59
2019-05-23T03:42:16.264Z,95826.41
2019-05-23T03:44:47.434Z,95826.42
2019-05-23T03:47:18.457Z,95817.36
2019-05-23T03:49:48.240Z,95820.03
2019-05-23T03:52:19.023Z,95825.66
2019-05-23T03:54:49.804Z,95826.19
2019-05-23T03:57:25.354Z,95831.87
2019-05-23T03:59:51.986Z,95832.36
2019-05-23T04:02:25.845Z,95836.25
2019-05-23T04:04:55.936Z,95832.77
2019-05-23T04:07:25.125Z,95832.77
2019-05-23T04:09:54.456Z,95836.73
2019-05-23T04:12:23.762Z,95837.16
2019-05-23T04:14:53.572Z,95840.66
2019-05-23T04:17:22.785Z,95834.19
2019-05-23T04:19:51.938Z,95833.31
2019-05-23T04:22:21.109Z,95832.00
2019-05-23T04:24:50.339Z,95838.87
2019-05-23T04:27:19.684Z,95839.34
2019-05-23T04:29:48.831Z,95841.00
2019-05-23T04:32:18.339Z,95841.88
2019-05-23T04:34:47.594Z,95841.30
2019-05-23T04:37:16.745Z,95836.89
2019-05-23T04:39:46.045Z,95842.87
2019-05-23T04:42:15.221Z,95840.15
2019-05-23T04:44:44.954Z,95841.03
2019-05-23T04:47:14.056Z,95838.71
2019-05-23T04:49:43.295Z,95843.03
2019-05-23T04:52:12.504Z,95842.55
2019-05-23T04:54:42.224Z,95841.59
2019-05-23T04:57:13.072Z,95845.36
2019-05-23T04:59:42.495Z,95845.36
2019-05-23T05:02:25.679Z,95844.47
2019-05-23T05:04:43.430Z,95849.50
2019-05-23T05:07:12.621Z,95843.72
2019-05-23T05:09:41.727Z,95845.78
2019-05-23T05:12:12.616Z,95850.45
2019-05-23T05:14:41.752Z,95840.77
2019-05-23T05:17:11.637Z,95849.25
2019-05-23T05:19:40.953Z,95840.88
2019-05-23T05:22:10.314Z,95845.45
2019-05-23T05:24:40.323Z,95847.03
2019-05-23T05:27:09.933Z,95848.20
2019-05-23T05:29:39.096Z,95851.15
2019-05-23T05:32:09.642Z,95847.96
2019-05-23T05:34:38.736Z,95850.94
2019-05-23T05:37:07.958Z,95847.77
2019-05-23T05:39:37.194Z,95846.80
2019-05-23T05:42:08.390Z,95850.17
2019-05-23T05:44:38.398Z,95849.20
2019-05-23T05:47:09.102Z,95855.06
2019-05-23T05:49:42.090Z,95854.87
2019-05-23T05:52:09.923Z,95848.19
2019-05-23T05:54:39.097Z,95852.76
2019-05-23T05:57:08.239Z,95853.00
2019-05-23T05:59:37.356Z,95854.15
2019-05-23T06:02:08.873Z,95858.83
2019-05-23T06:04:38.158Z,95858.72
2019-05-23T06:07:16.584Z,95857.67
2019-05-23T06:09:45.990Z,95859.37
2019-05-23T06:12:15.710Z,95864.83
2019-05-23T06:14:46.646Z,95861.17
2019-05-23T06:17:16.833Z,95865.83
2019-05-23T06:19:46.548Z,95857.38
2019-05-23T06:22:15.947Z,95857.28
2019-05-23T06:24:50.438Z,95856.33
2019-05-23T06:27:18.180Z,95854.90
2019-05-23T06:29:47.515Z,95857.52
2019-05-23T06:32:18.837Z,95859.43
2019-05-23T06:34:48.710Z,95864.89
2019-05-23T06:37:21.009Z,95865.61
2019-05-23T06:39:50.246Z,95864.91
2019-05-23T06:42:19.507Z,95862.26
2019-05-23T06:44:48.822Z,95862.08
2019-05-23T06:47:18.366Z,95865.41
2019-05-23T06:49:47.564Z,95862.64
2019-05-23T06:52:17.070Z,95858.09
2019-05-23T06:54:46.209Z,95859.64
2019-05-23T06:57:15.761Z,95858.55
2019-05-23T06:59:44.963Z,95862.25
2019-05-23T07:02:14.178Z,95866.32
2019-05-23T07:04:43.587Z,95863.98
2019-05-23T07:07:13.228Z,95863.34
2019-05-23T07:09:42.631Z,95862.17
2019-05-23T07:12:12.128Z,95869.92
2019-05-23T07:14:41.321Z,95870.23
2019-05-23T07:17:10.768Z,95866.97
2019-05-23T07:19:39.945Z,95869.89
2019-05-23T07:22:10.615Z,95864.48
2019-05-23T07:24:55.193Z,95862.73
2019-05-23T07:27:10.720Z,95868.71
2019-05-23T07:29:39.899Z,95856.48
2019-05-23T07:32:09.304Z,95858.12
2019-05-23T07:34:38.639Z,95856.27
2019-05-23T07:37:07.891Z,95857.59
2019-05-23T07:39:37.234Z,95854.10
2019-05-23T07:42:06.695Z,95846.10
2019-05-23T07:44:47.849Z,95852.78
2019-05-23T07:47:13.373Z,95852.13
2019-05-23T07:49:43.037Z,95851.08
2019-05-23T07:52:12.785Z,95849.41
2019-05-23T07:54:56.687Z,95847.27
2019-05-23T07:57:26.287Z,95847.23
2019-05-23T07:59:55.911Z,95839.83
2019-05-23T08:02:34.847Z,95838.70
2019-05-23T08:05:06.185Z,95841.49
2019-05-23T08:07:35.938Z,95840.92
2019-05-23T08:10:06.496Z,95835.73
2019-05-23T08:12:35.618Z,95835.78
2019-05-23T08:15:05.324Z,95835.55
2019-05-23T08:17:35.021Z,95833.52
2019-05-23T08:20:04.716Z,95830.19
2019-05-23T08:22:34.018Z,95831.16
2019-05-23T08:25:03.414Z,95828.41
2019-05-23T08:27:34.481Z,95828.88
2019-05-23T08:30:04.756Z,95829.28
2019-05-23T08:32:34.053Z,95822.48
2019-05-23T08:35:04.599Z,95824.47
2019-05-23T08:37:34.097Z,95828.57
2019-05-23T08:40:04.858Z,95834.88
2019-05-23T08:42:35.743Z,95826.95
2019-05-23T08:45:05.545Z,95825.67
2019-05-23T08:47:35.225Z,95826.22
2019-05-23T08:50:05.171Z,95829.73
2019-05-23T08:52:34.327Z,95831.99
2019-05-23T08:55:08.236Z,95830.19
2019-05-23T08:57:37.712Z,95822.94
2019-05-23T09:00:07.631Z,95824.94
2019-05-23T09:02:37.485Z,95827.92
2019-05-23T09:05:08.401Z,95822.94
2019-05-23T09:07:37.689Z,95820.53
2019-05-23T09:10:08.082Z,95825.34
2019-05-23T09:12:37.957Z,95814.05
2019-05-23T09:15:09.775Z,95821.40
2019-05-23T09:17:52.206Z,95823.46
2019-05-23T09:20:10.335Z,95819.28
2019-05-23T09:22:40.161Z,95818.27
2019-05-23T09:25:09.880Z,95820.31
2019-05-23T09:27:39.260Z,95823.23
2019-05-23T09:30:09.598Z,95819.56
2019-05-23T09:32:38.794Z,95815.31
2019-05-23T09:35:20.443Z,95820.31
2019-05-23T09:37:40.391Z,95815.58
2019-05-23T09:40:10.113Z,95814.40
2019-05-23T09:42:39.251Z,95814.00
2019-05-23T09:45:08.615Z,95810.84
2019-05-23T09:47:37.802Z,95817.69
2019-05-23T09:50:10.176Z,95818.20
2019-05-23T09:52:39.434Z,95810.63
2019-05-23T09:55:08.898Z,95814.05
2019-05-23T09:57:38.335Z,95806.06
2019-05-23T10:00:09.191Z,95803.22
2019-05-23T10:02:38.712Z,95803.56
2019-05-23T10:05:10.793Z,95801.25
2019-05-23T10:07:40.263Z,95797.95
2019-05-23T10:10:11.536Z,95797.52
2019-05-23T10:12:40.929Z,95806.47
2019-05-23T10:15:16.857Z,95804.51
2019-05-23T10:17:46.166Z,95802.33
2019-05-23T10:20:16.440Z,95805.36
2019-05-23T10:22:45.828Z,95804.28
2019-05-23T10:25:15.031Z,95797.73
2019-05-23T10:27:44.322Z,95793.31
2019-05-23T10:30:15.982Z,95796.14
2019-05-23T10:32:45.168Z,95798.80
2019-05-23T10:35:15.610Z,95786.36
2019-05-23T10:37:44.804Z,95787.06
2019-05-23T10:40:15.563Z,95778.27
2019-05-23T10:42:44.929Z,95773.12
2019-05-23T10:45:15.710Z,95781.58
2019-05-23T10:47:44.945Z,95785.61
2019-05-23T10:50:14.616Z,95778.99
2019-05-23T10:52:43.849Z,95776.09
2019-05-23T10:55:13.068Z,95772.70
2019-05-23T10:57:42.785Z,95766.62
2019-05-23T11:00:14.191Z,95765.93
2019-05-23T11:02:44.210Z,95764.05
2019-05-23T11:05:14.463Z,95765.75
2019-05-23T11:07:43.710Z,95760.24
2019-05-23T11:10:16.334Z,95767.44
2019-05-23T11:12:45.558Z,95769.79
2019-05-23T11:15:15.271Z,95761.94
2019-05-23T11:17:44.977Z,95759.11
2019-05-23T11:20:15.575Z,95757.74
2019-05-23T11:22:45.434Z,95757.59
2019-05-23T11:25:17.047Z,95755.11
2019-05-23T11:27:46.568Z,95752.57
2019-05-23T11:30:24.039Z,95747.36
2019-05-23T11:32:53.298Z,95745.84
2019-05-23T11:35:23.586Z,95746.56
2019-05-23T11:37:52.949Z,95732.52
2019-05-23T11:40:22.205Z,95729.09
2019-05-23T11:42:52.957Z,95735.59
2019-05-23T11:45:24.096Z,95736.84
2019-05-23T11:47:53.659Z,95729.38
2019-05-23T11:50:23.263Z,95724.20
2019-05-23T11:52:55.833Z,95726.73
2019-05-23T11:55:23.968Z,95729.59
2019-05-23T11:57:53.296Z,95719.38
2019-05-23T12:00:40.897Z,95712.94
2019-05-23T12:03:10.106Z,95715.14
2019-05-23T12:05:39.449Z,95715.25
2019-05-23T12:08:08.809Z,95710.71
2019-05-23T12:10:38.018Z,95708.07
2019-05-23T12:13:07.511Z,95712.17
2019-05-23T12:15:38.411Z,95708.73
2019-05-23T12:18:09.361Z,95703.31
2019-05-23T12:20:39.051Z,95699.58
2019-05-23T12:23:11.006Z,95708.31
2019-05-23T12:25:39.448Z,95697.60
2019-05-23T12:28:09.055Z,95700.58
2019-05-23T12:30:38.511Z,95699.47
2019-05-23T12:33:07.866Z,95704.52
2019-05-23T12:35:37.058Z,95694.07
2019-05-23T12:38:06.621Z,95690.41
2019-05-23T12:40:36.293Z,95687.45
2019-05-23T12:43:05.626Z,95686.44
2019-05-23T12:45:35.014Z,95687.30
2019-05-23T12:48:08.455Z,95686.26
2019-05-23T12:50:40.851Z,95685.84
2019-05-23T12:53:11.835Z,95681.60
2019-05-23T12:55:40.967Z,95683.94
2019-05-23T12:58:10.133Z,95685.77
2019-05-23T13:00:53.311Z,95679.45
2019-05-23T13:03:23.029Z,95683.23
2019-05-23T13:05:55.421Z,95674.02
2019-05-23T13:08:24.742Z,95666.45
2019-05-23T13:10:53.884Z,95669.97
2019-05-23T13:13:23.408Z,95672.14
2019-05-23T13:15:52.719Z,95667.97
2019-05-23T13:18:22.219Z,95665.30
2019-05-23T13:20:51.882Z,95666.66
2019-05-23T13:23:22.029Z,95665.31
2019-05-23T13:25:51.364Z,95666.83
2019-05-23T13:28:20.615Z,95667.59
2019-05-23T13:30:49.887Z,95658.80
2019-05-23T13:33:19.085Z,95668.81
2019-05-23T13:35:48.711Z,95660.40
2019-05-23T13:38:17.971Z,95659.17
2019-05-23T13:40:47.293Z,95652.39
2019-05-23T13:43:16.502Z,95649.91
2019-05-23T13:45:45.839Z,95649.06
2019-05-23T13:48:14.960Z,95643.56
2019-05-23T13:50:44.614Z,95637.95
2019-05-23T13:53:13.832Z,95635.13
2019-05-23T13:55:43.478Z,95638.31
2019-05-23T13:58:12.921Z,95632.05
2019-05-23T14:00:43.470Z,95637.43
2019-05-23T14:03:12.719Z,95632.14
2019-05-23T14:05:42.242Z,95628.19
2019-05-23T14:08:13.302Z,95630.14
2019-05-23T14:10:42.666Z,95629.56
2019-05-23T14:13:11.811Z,95628.45
2019-05-23T14:15:43.634Z,95625.35
2019-05-23T14:18:15.364Z,95629.70
2019-05-23T14:20:44.564Z,95621.58
2019-05-23T14:23:32.818Z,95617.54
2019-05-23T14:26:03.430Z,95619.84
2019-05-23T14:28:32.862Z,95611.00
2019-05-23T14:31:11.015Z,95608.23
2019-05-23T14:34:04.990Z,95610.89
2019-05-23T14:36:51.810Z,95611.06
2019-05-23T14:39:32.493Z,95613.27
2019-05-23T14:42:10.523Z,95605.48
2019-05-23T14:44:39.709Z,95605.75
2019-05-23T14:47:30.955Z,95606.02
2019-05-23T14:50:27.954Z,95602.81
2019-05-23T14:52:58.365Z,95607.91
2019-05-23T14:55:27.642Z,95604.04
2019-05-23T14:57:56.799Z,95606.02
2019-05-23T15:00:27.703Z,95604.75
2019-05-23T15:02:56.815Z,95600.30
2019-05-23T15:05:26.240Z,95595.45
2019-05-23T15:07:55.398Z,95595.61
2019-05-23T15:10:25.068Z,95592.36
2019-05-23T15:12:54.196Z,95595.86
2019-05-23T15:15:23.471Z,95591.22
2019-05-23T15:17:52.654Z,95597.04
2019-05-23T15:20:21.804Z,95599.30
2019-05-23T15:22:51.542Z,95599.78
2019-05-23T15:25:20.729Z,95590.33
2019-05-23T15:27:49.894Z,95589.77
2019-05-23T15:30:19.590Z,95599.09
2019-05-23T15:32:48.757Z,95592.30
2019-05-23T15:35:18.082Z,95591.05
2019-05-23T15:37:47.424Z,95590.05
2019-05-23T15:40:16.665Z,95587.11
2019-05-23T15:42:45.804Z,95585.45
2019-05-23T15:45:14.919Z,95585.18
2019-05-23T15:47:44.072Z,95583.50
2019-05-23T15:50:16.203Z,95578.84
2019-05-23T15:53:10.151Z,95584.55
2019-05-23T15:55:54.218Z,95579.17
2019-05-23T15:58:46.747Z,95584.26
2019-05-23T16:01:23.337Z,95580.45
2019-05-23T16:04:02.396Z,95586.31
2019-05-23T16:06:33.148Z,95577.49
2019-05-23T16:09:02.376Z,95579.71
2019-05-23T16:11:31.503Z,95578.80
2019-05-23T16:14:00.735Z,95576.44
2019-05-23T16:16:31.142Z,95570.52
2019-05-23T16:19:00.538Z,95573.46
2019-05-23T16:21:30.711Z,95573.44
2019-05-23T16:24:01.143Z,95573.76
2019-05-23T16:26:30.487Z,95564.05
2019-05-23T16:29:01.286Z,95564.82
2019-05-23T16:31:30.563Z,95567.58
2019-05-23T16:33:59.835Z,95565.05
2019-05-23T16:36:28.896Z,95566.45
2019-05-23T16:38:58.018Z,95561.25
2019-05-23T16:41:27.668Z,95559.41
2019-05-23T16:43:56.949Z,95563.64
2019-05-23T16:46:26.188Z,95560.91
2019-05-23T16:48:55.467Z,95559.78
2019-05-23T16:51:24.649Z,95565.56
2019-05-23T16:53:54.050Z,95563.23
2019-05-23T16:56:42.890Z,95566.80
2019-05-23T16:59:27.686Z,95564.78
2019-05-23T17:02:07.701Z,95565.14
2019-05-23T17:05:08.518Z,95561.13
2019-05-23T17:07:39.891Z,95560.56
2019-05-23T17:10:31.633Z,95563.36
2019-05-23T17:13:08.702Z,95560.83
2019-05-23T17:16:06.265Z,95557.67
2019-05-23T17:19:00.881Z,95562.29
2019-05-23T17:21:56.446Z,95564.90
2019-05-23T17:24:40.174Z,95563.29
2019-05-23T17:27:35.079Z,95565.56
2019-05-23T17:30:35.948Z,95559.52
2019-05-23T17:33:07.019Z,95565.31
2019-05-23T17:35:36.926Z,95564.03
2019-05-23T17:38:06.180Z,95566.27
2019-05-23T17:40:35.793Z,95562.57
2019-05-23T17:43:05.010Z,95568.37
2019-05-23T17:45:34.702Z,95566.99
2019-05-23T17:48:04.115Z,95566.22
2019-05-23T17:50:34.884Z,95568.58
2019-05-23T17:53:04.471Z,95563.20
2019-05-23T17:55:34.316Z,95562.45
2019-05-23T17:58:03.681Z,95558.19
2019-05-23T18:00:38.479Z,95562.86
2019-05-23T18:03:08.050Z,95557.27
2019-05-23T18:05:37.628Z,95569.20
2019-05-23T18:08:08.845Z,95566.31
2019-05-23T18:10:44.416Z,95568.59
2019-05-23T18:13:10.985Z,95568.20
2019-05-23T18:15:40.464Z,95562.35
2019-05-23T18:18:10.199Z,95566.52
2019-05-23T18:20:41.345Z,95573.81
2019-05-23T18:23:11.179Z,95575.03
2019-05-23T18:25:41.461Z,95578.40
2019-05-23T18:28:12.155Z,95584.82
2019-05-23T18:30:53.852Z,95578.02
2019-05-23T18:33:25.498Z,95580.00
2019-05-23T18:35:56.317Z,95579.87
2019-05-23T18:38:26.214Z,95584.02
2019-05-23T18:41:04.028Z,95574.94
2019-05-23T18:43:26.930Z,95577.56
2019-05-23T18:46:00.022Z,95582.83
2019-05-23T18:48:29.633Z,95580.34
2019-05-23T18:50:59.088Z,95582.73
2019-05-23T18:53:29.213Z,95579.54
2019-05-23T18:55:58.440Z,95582.43
2019-05-23T18:58:27.941Z,95585.28
2019-05-23T19:01:05.782Z,95588.44
2019-05-23T19:03:35.031Z,95589.19
2019-05-23T19:06:04.546Z,95589.88
2019-05-23T19:08:33.972Z,95592.77
2019-05-23T19:11:19.410Z,95595.45
2019-05-23T19:13:34.427Z,95594.80
2019-05-23T19:16:03.762Z,95597.28
2019-05-23T19:18:33.782Z,95602.27
2019-05-23T19:21:04.271Z,95600.19
2019-05-23T19:23:33.810Z,95604.63
2019-05-23T19:26:02.983Z,95604.08
2019-05-23T19:28:32.467Z,95600.05
2019-05-23T19:31:02.529Z,95602.39
2019-05-23T19:33:31.855Z,95613.34
2019-05-23T19:36:01.293Z,95604.20
2019-05-23T19:38:30.489Z,95608.36
2019-05-23T19:40:59.746Z,95605.64
2019-05-23T19:43:29.325Z,95608.64
2019-05-23T19:45:58.568Z,95608.11
2019-05-23T19:48:27.809Z,95608.77
2019-05-23T19:50:57.130Z,95604.42
2019-05-23T19:53:26.323Z,95607.21
2019-05-23T19:55:55.741Z,95606.58
2019-05-23T19:58:25.284Z,95605.17
2019-05-23T20:00:54.566Z,95606.79
2019-05-23T20:03:23.968Z,95608.16
2019-05-23T20:05:54.832Z,95603.91
2019-05-23T20:08:24.843Z,95601.48
2019-05-23T20:10:54.096Z,95599.92
2019-05-23T20:13:24.697Z,95606.70
2019-05-23T20:15:53.945Z,95606.70
2019-05-23T20:18:23.924Z,95605.00
2019-05-23T20:20:53.208Z,95605.14
2019-05-23T20:23:22.458Z,95603.97
2019-05-23T20:25:51.693Z,95602.55
2019-05-23T20:28:21.344Z,95610.63
2019-05-23T20:30:57.913Z,95612.09
2019-05-23T20:33:27.325Z,95611.00
2019-05-23T20:35:56.673Z,95599.64
2019-05-23T20:38:26.509Z,95601.71
2019-05-23T20:40:56.944Z,95599.02
2019-05-23T20:43:26.176Z,95600.22
2019-05-23T20:45:55.411Z,95595.48
2019-05-23T20:48:25.914Z,95596.29
2019-05-23T20:50:55.133Z,95595.07
2019-05-23T20:53:24.482Z,95592.19
2019-05-23T20:55:53.695Z,95585.41
2019-05-23T20:58:23.243Z,95591.69
2019-05-23T21:01:03.143Z,95591.69
2019-05-23T21:03:35.326Z,95591.03
2019-05-23T21:06:04.735Z,95590.11
2019-05-23T21:08:33.981Z,95584.98
2019-05-23T21:11:03.160Z,95592.20
2019-05-23T21:13:32.517Z,95591.41
2019-05-23T21:16:01.821Z,95596.83
2019-05-23T21:18:31.101Z,95590.80
2019-05-23T21:21:02.385Z,95589.30
2019-05-23T21:23:31.750Z,95594.67
2019-05-23T21:26:04.756Z,95595.83
2019-05-23T21:28:36.227Z,95597.71
2019-05-23T21:31:09.488Z,95605.19
2019-05-23T21:33:38.703Z,95600.31
2019-05-23T21:36:07.935Z,95603.93
2019-05-23T21:38:37.173Z,95597.09
2019-05-23T21:41:06.329Z,95594.64
2019-05-23T21:43:35.476Z,95594.41
2019-05-23T21:46:04.782Z,95588.50
2019-05-23T21:48:33.901Z,95587.27
2019-05-23T21:51:03.106Z,95593.06
2019-05-23T21:53:32.210Z,95590.69
2019-05-23T21:56:01.450Z,95587.34
2019-05-23T21:58:30.692Z,95589.69
2019-05-23T22:01:29.831Z,95591.12
2019-05-23T22:04:27.703Z,95594.38
2019-05-23T22:07:02.370Z,95599.42
2019-05-23T22:09:31.757Z,95588.02
2019-05-23T22:12:01.520Z,95585.56
2019-05-23T22:14:30.672Z,95580.91
2019-05-23T22:16:59.803Z,95586.70
2019-05-23T22:19:29.674Z,95576.70
2019-05-23T22:21:58.936Z,95580.27
2019-05-23T22:24:28.258Z,95577.65
2019-05-23T22:26:57.370Z,95573.84
2019-05-23T22:29:26.618Z,95571.73
2019-05-23T22:31:56.630Z,95574.42
2019-05-23T22:34:32.058Z,95567.13
2019-05-23T22:37:01.693Z,95570.84
2019-05-23T22:39:30.844Z,95574.41
2019-05-23T22:41:59.968Z,95571.47
2019-05-23T22:44:29.049Z,95577.66
2019-05-23T22:46:58.487Z,95567.77
2019-05-23T22:49:27.577Z,95565.30
2019-05-23T22:51:56.716Z,95560.80
2019-05-23T22:54:25.848Z,95554.63
2019-05-23T22:56:55.132Z,95553.03
2019-05-23T22:59:24.286Z,95562.42
2019-05-23T23:01:53.417Z,95567.77
2019-05-23T23:04:22.619Z,95563.00
2019-05-23T23:06:51.856Z,95562.70
2019-05-23T23:09:21.720Z,95554.20
2019-05-23T23:11:50.858Z,95552.31
2019-05-23T23:14:19.973Z,95546.75
2019-05-23T23:16:49.968Z,95550.67
2019-05-23T23:19:19.099Z,95547.16
2019-05-23T23:21:48.223Z,95547.26
2019-05-23T23:24:17.432Z,95546.56
2019-05-23T23:26:46.722Z,95545.88
2019-05-23T23:29:15.955Z,95545.14
2019-05-23T23:31:45.092Z,95541.57
2019-05-23T23:34:14.227Z,95540.27
2019-05-23T23:36:43.450Z,95541.57
2019-05-23T23:39:12.790Z,95544.73
2019-05-23T23:41:41.886Z,95532.27
2019-05-23T23:44:11.555Z,95534.48
2019-05-23T23:46:58.678Z,95540.58
2019-05-23T23:49:45.923Z,95541.92
2019-05-23T23:52:32.967Z,95548.56
2019-05-23T23:55:19.960Z,95544.70
2019-05-23T23:58:00.306Z,95538.78
